createdAt,value
2022-12-13T00:05:45.453Z,-3.09
2022-12-13T00:15:59.423Z,-3.19
2022-12-13T00:26:12.052Z,-3.19
2022-12-13T00:36:15.211Z,-3.26
2022-12-13T00:46:21.376Z,-3.25
2022-12-13T00:56:27.496Z,-3.25
2022-12-13T01:06:39.461Z,-3.29
2022-12-13T01:16:41.319Z,-3.38
2022-12-13T01:27:01.429Z,-3.49
2022-12-13T01:37:13.096Z,-3.53
2022-12-13T01:47:19.643Z,-3.45
2022-12-13T01:57:23.281Z,-3.64
2022-12-13T02:07:29.588Z,-3.47
2022-12-13T02:17:53.164Z,-3.47
2022-12-13T02:28:31.011Z,-3.48
2022-12-13T02:38:41.978Z,-3.58
2022-12-13T02:48:45.971Z,-3.68
2022-12-13T02:58:52.722Z,-3.53
2022-12-13T03:09:33.252Z,-3.55
2022-12-13T03:19:35.499Z,-3.74
2022-12-13T03:29:38.205Z,-3.79
2022-12-13T03:39:43.914Z,-3.82
2022-12-13T03:49:47.588Z,-3.87
2022-12-13T03:59:56.241Z,-3.96
2022-12-13T04:09:57.975Z,-3.98
2022-12-13T04:20:01.972Z,-4.01
2022-12-13T04:30:05.029Z,-4.05
2022-12-13T04:40:10.415Z,-4.13
2022-12-13T04:50:13.328Z,-4.03
2022-12-13T05:00:17.511Z,-4.12
2022-12-13T05:10:34.307Z,-4.26
2022-12-13T05:20:41.012Z,-4.43
2022-12-13T05:30:44.943Z,-4.43
2022-12-13T05:40:47.556Z,-4.57
2022-12-13T05:50:49.378Z,-4.72
2022-12-13T06:00:53.180Z,-4.86
2022-12-13T06:11:10.760Z,-4.83
2022-12-13T06:21:13.794Z,-4.73
2022-12-13T06:31:15.769Z,-4.60
2022-12-13T06:41:18.356Z,-4.48
2022-12-13T06:51:22.819Z,-4.50
2022-12-13T07:01:28.265Z,-4.31
2022-12-13T07:11:39.645Z,-4.17
2022-12-13T07:21:41.337Z,-3.63
2022-12-13T07:31:48.022Z,-2.94
2022-12-13T07:41:50.881Z,-2.49
2022-12-13T07:51:55.842Z,-2.11
2022-12-13T08:01:57.707Z,-1.32
2022-12-13T08:12:04.284Z,-1.22
2022-12-13T08:22:07.160Z,-0.57
2022-12-13T08:32:15.976Z,0.25
2022-12-13T08:42:20.346Z,0.46
2022-12-13T08:52:31.755Z,0.97
2022-12-13T09:02:38.457Z,2.16
2022-12-13T09:12:46.231Z,2.74
2022-12-13T09:22:48.044Z,4.75
2022-12-13T09:32:50.650Z,6.54
2022-12-13T09:43:20.429Z,7.56
2022-12-13T09:53:22.753Z,8.57
2022-12-13T10:03:27.236Z,9.98
2022-12-13T10:14:06.845Z,10.41
2022-12-13T10:24:31.394Z,12.65
2022-12-13T10:34:37.625Z,8.09
2022-12-13T10:44:42.657Z,11.68
2022-12-13T10:54:48.307Z,12.75
2022-12-13T11:05:23.362Z,11.78
2022-12-13T11:15:37.137Z,12.53
2022-12-13T11:25:43.882Z,11.89
2022-12-13T11:36:07.771Z,11.59
2022-12-13T11:46:20.222Z,11.55
2022-12-13T11:56:23.870Z,11.00
2022-12-13T12:06:44.473Z,13.78
2022-12-13T12:16:59.494Z,14.42
2022-12-13T12:27:25.342Z,7.19
2022-12-13T12:37:42.899Z,5.22
2022-12-13T12:59:10.662Z,3.91
2022-12-13T13:09:17.095Z,6.34
2022-12-13T13:19:35.537Z,6.43
2022-12-13T13:29:43.026Z,6.76
2022-12-13T13:39:59.133Z,3.51
2022-12-13T13:50:12.977Z,3.16
2022-12-13T14:00:44.387Z,4.60
2022-12-13T14:11:22.272Z,2.34
2022-12-13T14:22:00.135Z,2.18
2022-12-13T14:32:02.966Z,1.42
2022-12-13T14:42:30.445Z,0.62
2022-12-13T14:52:42.609Z,0.05
2022-12-13T15:02:51.941Z,-0.47
2022-12-13T15:12:55.052Z,-0.81
2022-12-13T15:23:01.148Z,-0.95
2022-12-13T15:33:22.443Z,-1.28
2022-12-13T15:43:46.136Z,-1.41
2022-12-13T15:54:11.518Z,-1.47
2022-12-13T16:04:29.523Z,-1.53
2022-12-13T16:14:49.588Z,-1.81
2022-12-13T16:25:01.238Z,-1.83
2022-12-13T16:35:03.427Z,-2.06
2022-12-13T16:45:39.986Z,-2.18
2022-12-13T16:55:29.413Z,-2.34
2022-12-13T17:05:33.839Z,-2.42
2022-12-13T17:15:40.978Z,-2.06
2022-12-13T17:25:44.469Z,-2.22
2022-12-13T17:35:47.444Z,-2.68
2022-12-13T17:46:02.868Z,-2.72
2022-12-13T17:56:08.784Z,-2.98
2022-12-13T18:06:15.063Z,-3.09
2022-12-13T18:16:19.238Z,-3.15
2022-12-13T18:26:23.478Z,-3.34
2022-12-13T18:36:27.834Z,-3.53
2022-12-13T18:46:35.518Z,-3.63
2022-12-13T18:56:38.237Z,-3.76
2022-12-13T19:06:51.309Z,-3.92
2022-12-13T19:16:56.584Z,-3.96
2022-12-13T19:27:02.604Z,-3.93
2022-12-13T19:37:06.767Z,-4.31
2022-12-13T19:47:12.720Z,-4.36
2022-12-13T19:57:16.546Z,-4.46
2022-12-13T20:07:19.459Z,-4.66
2022-12-13T20:17:23.354Z,-4.66
2022-12-13T20:27:28.110Z,-4.64
2022-12-13T20:37:34.911Z,-4.82
2022-12-13T20:47:39.043Z,-4.77
2022-12-13T20:57:41.786Z,-4.93
2022-12-13T21:08:04.607Z,-5.03
2022-12-13T21:18:09.109Z,-5.00
2022-12-13T21:28:11.460Z,-5.15
2022-12-13T21:38:13.300Z,-5.07
2022-12-13T21:48:15.550Z,-5.16
2022-12-13T21:58:36.002Z,-5.25
2022-12-13T22:08:43.937Z,-5.36
2022-12-13T22:18:48.294Z,-5.58
2022-12-13T22:28:51.111Z,-5.71
2022-12-13T22:38:54.934Z,-5.76
2022-12-13T22:48:56.901Z,-5.67
2022-12-13T22:59:02.238Z,-5.88
2022-12-13T23:09:10.395Z,-5.69
2022-12-13T23:29:40.634Z,-5.80
2022-12-13T23:39:48.376Z,-5.82
2022-12-13T23:49:53.429Z,-5.70
2022-12-13T23:59:56.120Z,-5.81
